METAR Data
IDs: Format: Raw Decoded Include TAF

Data at: 0019 UTC 30 May 2020

KDEH 300015Z AUTO 36009G15KT 10SM FEW046 FEW055 17/08 A3011 RMK AO2
KDEH 292355Z AUTO 36011KT 10SM FEW046 BKN055 17/09 A3011 RMK AO2
KDEH 292335Z AUTO 33010KT 10SM CLR 17/08 A3011 RMK AO2
KDEH 292315Z AUTO 33012G19KT 10SM FEW055 17/08 A3011 RMK AO2
KDEH 292255Z AUTO 34011KT 10SM FEW045 BKN055 17/08 A3010 RMK AO2
KDEH 292235Z AUTO 35011KT 10SM BKN055 18/09 A3010 RMK AO2
KDEH 292215Z AUTO 32008G16KT 10SM SCT050 BKN055 17/09 A3010 RMK AO2
KDEH 292155Z AUTO 34010G16KT 10SM BKN050 OVC055 17/09 A3010 RMK AO2
KDEH 292135Z AUTO 35009G14KT 10SM BKN050 OVC055 17/09 A3009 RMK AO2
KDEH 292115Z AUTO 35009G15KT 10SM OVC055 17/08 A3009 RMK AO2
KDEH 292055Z AUTO 35012KT 10SM BKN050 BKN055 17/09 A3009 RMK AO2
KDEH 292035Z AUTO 32013KT 10SM BKN049 BKN055 17/08 A3008 RMK AO2
KDEH 292015Z AUTO 33012G19KT 10SM SCT046 SCT050 17/09 A3007 RMK AO2
KDEH 291955Z AUTO 30009G16KT 270V330 10SM SCT045 BKN050 17/08 A3007 RMK AO2
KDEH 291935Z AUTO 35014KT 10SM BKN045 BKN050 17/09 A3007 RMK AO2
KDEH 291915Z AUTO 32009G17KT 10SM SCT040 BKN046 16/09 A3007 RMK AO2
KDEH 291855Z AUTO 34014KT 10SM 16/09 A3007 RMK AO2
KDEH 291835Z AUTO 33011G19KT 10SM 16/08 A3007 RMK AO2
KDEH 291815Z AUTO 32009G18KT 10SM 16/08 A3007 RMK AO2
KDEH 291755Z AUTO 32011G17KT 10SM 15/08 A3008 RMK AO2
KDEH 291735Z AUTO 32008G15KT 10SM 15/08 A3008 RMK AO2
KDEH 291715Z AUTO 31007G13KT 250V330 10SM OVC041 14/08 A3008 RMK AO2
KDEH 291655Z AUTO 32008G15KT 280V340 10SM OVC043 15/09 A3008 RMK AO2
KDEH 291635Z AUTO 32010KT 10SM FEW033 OVC042 14/09 A3008 RMK AO2
KDEH 291615Z AUTO 32012G17KT 10SM SCT033 OVC044 14/08 A3007 RMK AO2
KDEH 291555Z AUTO 32013G18KT 10SM FEW033 OVC045 14/09 A3007 RMK AO2
KDEH 291535Z AUTO 33012G18KT 10SM OVC044 14/09 A3006 RMK AO2
KDEH 291515Z AUTO 33012G19KT 10SM OVC042 14/09 A3006 RMK AO2
KDEH 291455Z AUTO 33012G18KT 10SM OVC043 14/09 A3006 RMK AO2
KDEH 291435Z AUTO 34012G17KT 10SM BKN045 14/09 A3006 RMK AO2
KDEH 291415Z AUTO 33015KT 10SM FEW029 FEW049 15/09 A3006 RMK AO2
KDEH 291355Z AUTO 33010G17KT 10SM CLR 14/10 A3006 RMK AO2
KDEH 291335Z AUTO 33009G17KT 10SM CLR 14/10 A3005 RMK AO2
KDEH 291315Z AUTO 34011KT 10SM CLR 14/10 A3005 RMK AO2
KDEH 291255Z AUTO 32008KT 10SM CLR 13/10 A3004 RMK AO2
KDEH 291235Z AUTO 32006G13KT 10SM CLR 13/10 A3004 RMK AO2
KDEH 291215Z AUTO VRB06KT 10SM CLR 13/10 A3003 RMK AO2
KDEH 291155Z AUTO 32006KT 10SM CLR 12/10 A3003 RMK AO2
KDEH 291135Z AUTO 32006KT 10SM CLR 12/10 A3002 RMK AO2
KDEH 291115Z AUTO 32005KT 10SM CLR 12/09 A3002 RMK AO2
KDEH 291055Z AUTO VRB04KT 10SM CLR 11/09 A3001 RMK AO2
KDEH 291035Z AUTO VRB04KT 10SM CLR 11/09 A3000 RMK AO2
KDEH 291015Z AUTO 31004KT 10SM CLR 12/10 A3000 RMK AO2
KDEH 290955Z AUTO VRB04KT 10SM CLR 12/10 A2999 RMK AO2
KDEH 290935Z AUTO 31003KT 10SM CLR 12/10 A2998 RMK AO2
KDEH 290855Z AUTO VRB03KT 10SM CLR 13/10 A2998 RMK AO2
KDEH 290835Z AUTO 00000KT 10SM CLR 13/10 A2998 RMK AO2
KDEH 290815Z AUTO 31003KT 10SM CLR 13/10 A2997 RMK AO2
KDEH 290755Z AUTO 32005KT 10SM CLR 14/10 A2997 RMK AO2
KDEH 290735Z AUTO 32005KT 10SM CLR 14/10 A2997 RMK AO2
KDEH 290715Z AUTO 32004KT 10SM CLR 14/10 A2996 RMK AO2
KDEH 290655Z AUTO 32005KT 10SM CLR 14/10 A2996 RMK AO2
KDEH 290635Z AUTO 32005G10KT 10SM CLR 14/10 A2996 RMK AO2
KDEH 290615Z AUTO 32005KT 10SM CLR 15/10 A2996 RMK AO2
KDEH 290555Z AUTO VRB05KT 10SM CLR 15/10 A2996 RMK AO2
KDEH 290535Z AUTO 31006KT 10SM CLR 15/09 A2995 RMK AO2
KDEH 290515Z AUTO VRB04KT 10SM CLR 15/09 A2995 RMK AO2
KDEH 290455Z AUTO 29004KT 10SM CLR 16/09 A2995 RMK AO2
KDEH 290435Z AUTO 30004KT 10SM CLR 16/09 A2994 RMK AO2
KDEH 290415Z AUTO VRB04KT 10SM CLR 16/09 A2994 RMK AO2
KDEH 290355Z AUTO 28003KT 10SM CLR 17/10 A2994 RMK AO2
KDEH 290335Z AUTO 29004KT 10SM CLR 17/10 A2994 RMK AO2
KDEH 290315Z AUTO VRB03KT 10SM CLR 18/11 A2993 RMK AO2
KDEH 290255Z AUTO 30004KT 10SM CLR 18/11 A2993 RMK AO2
KDEH 290235Z AUTO 29003KT 10SM CLR 18/12 A2992 RMK AO2
KDEH 290215Z AUTO 29003KT 10SM CLR 19/12 A2992 RMK AO2
KDEH 290155Z AUTO 29004KT 10SM CLR 20/12 A2991 RMK AO2
KDEH 290135Z AUTO 00000KT 10SM CLR 20/11 A2992 RMK AO2
KDEH 290115Z AUTO 00000KT 10SM CLR 21/10 A2991 RMK AO2
KDEH 290055Z AUTO 00000KT 10SM CLR 21/09 A2991 RMK AO2
KDEH 290035Z AUTO 00000KT 10SM CLR 21/10 A2991 RMK AO2
KDEH 290015Z AUTO 00000KT 10SM CLR 22/11 A2991 RMK AO2
KDEH 282355Z AUTO 00000KT 10SM CLR 21/11 A2991 RMK AO2
KDEH 282335Z AUTO 32005KT 10SM CLR 21/10 A2990 RMK AO2
KDEH 282315Z AUTO 34008KT 10SM CLR 22/10 A2990 RMK AO2
KDEH 282255Z AUTO 34009KT 4SM HZ CLR 22/09 A2990 RMK AO2
KDEH 282235Z AUTO 34008G15KT 1 1/2SM HZ CLR 22/09 A2990 RMK AO2
KDEH 282215Z AUTO 34007KT 9SM CLR 22/10 A2991 RMK AO2
KDEH 282155Z AUTO 34009KT 9SM SCT080 22/11 A2991 RMK AO2
KDEH 282135Z AUTO 34010KT 10SM BKN080 22/11 A2991 RMK AO2
KDEH 282115Z AUTO 36008G15KT 10SM FEW075 21/11 A2990 RMK AO2
KDEH 282055Z AUTO 36008G14KT 10SM CLR 21/14 A2990 RMK AO2
KDEH 282035Z AUTO 34010G16KT 10SM CLR 21/15 A2989 RMK AO2
KDEH 282015Z AUTO 35007KT 10SM CLR 20/16 A2989 RMK AO2
KDEH 281955Z AUTO 33004KT 10SM CLR 19/17 A2989 RMK AO2
KDEH 281935Z AUTO VRB03KT 10SM CLR 18/18 A2988 RMK AO2
KDEH 281915Z AUTO 00000G10KT 10SM CLR 18/17 A2988 RMK AO2
KDEH 281855Z AUTO 04004KT 10SM CLR 18/16 A2987 RMK AO2 P0001
KDEH 281835Z AUTO 05008G13KT 9SM CLR 18/16 A2988 RMK AO2
KDEH 281815Z AUTO 02009KT 8SM RA CLR 18/17 A2989 RMK AO2
KDEH 281755Z AUTO 35008KT 5SM RA CLR 18/18 A2989 RMK AO2 P0002
KDEH 281715Z AUTO 33008KT 9SM -RA BKN013 BKN018 19/19 A2990 RMK AO2
KDEH 281655Z AUTO 32006KT 10SM OVC013 19/19 A2990 RMK AO2
KDEH 281255Z AUTO 04003KT 8SM OVC002 19/19 A2986 RMK AO2
KDEH 281235Z AUTO 03004KT 6SM BR OVC002 19/19 A2986 RMK AO2